createdAt,value
2022-10-26T00:00:17.187Z,100.00
2022-10-26T00:06:23.189Z,100.00
2022-10-26T00:12:03.195Z,100.00
2022-10-26T00:17:43.279Z,100.00
2022-10-26T00:23:23.270Z,100.00
2022-10-26T00:29:08.277Z,100.00
2022-10-26T00:34:48.301Z,100.00
2022-10-26T00:40:28.215Z,100.00
2022-10-26T00:46:10.207Z,100.00
2022-10-26T00:51:54.347Z,100.00
2022-10-26T00:57:34.327Z,100.00
2022-10-26T01:03:19.275Z,100.00
2022-10-26T01:09:00.272Z,100.00
2022-10-26T01:14:42.255Z,100.00
2022-10-26T01:21:06.338Z,100.00
2022-10-26T01:27:11.283Z,100.00
2022-10-26T01:32:58.247Z,100.00
2022-10-26T01:38:48.318Z,100.00
2022-10-26T01:44:35.226Z,100.00
2022-10-26T01:50:17.292Z,100.00
2022-10-26T01:56:03.275Z,100.00
2022-10-26T02:01:59.203Z,100.00
2022-10-26T02:07:48.457Z,100.00
2022-10-26T02:13:35.262Z,100.00
2022-10-26T02:19:21.369Z,100.00
2022-10-26T02:25:05.251Z,100.00
2022-10-26T02:30:47.264Z,100.00
2022-10-26T02:36:31.276Z,100.00
2022-10-26T02:42:14.311Z,100.00
2022-10-26T02:47:54.245Z,100.00
2022-10-26T02:53:41.328Z,100.00
2022-10-26T02:59:25.386Z,100.00
2022-10-26T03:05:06.374Z,100.00
2022-10-26T03:10:51.298Z,100.00
2022-10-26T03:16:31.359Z,100.00
2022-10-26T03:22:11.385Z,100.00
2022-10-26T03:27:51.635Z,100.00
2022-10-26T03:33:31.431Z,100.00
2022-10-26T03:39:11.319Z,100.00
2022-10-26T03:44:51.429Z,100.00
2022-10-26T03:50:33.364Z,100.00
2022-10-26T03:56:13.319Z,100.00
2022-10-26T04:01:56.777Z,100.00
2022-10-26T04:07:37.358Z,100.00
2022-10-26T04:13:17.461Z,100.00
2022-10-26T04:18:57.339Z,100.00
2022-10-26T04:24:44.370Z,100.00
2022-10-26T04:30:26.655Z,100.00
2022-10-26T04:36:06.437Z,100.00
2022-10-26T04:41:46.406Z,100.00
2022-10-26T04:47:26.387Z,100.00
2022-10-26T04:53:06.416Z,100.00
2022-10-26T04:58:46.423Z,100.00
2022-10-26T05:04:26.397Z,100.00
2022-10-26T05:10:06.417Z,100.00
2022-10-26T05:15:46.443Z,100.00
2022-10-26T05:21:26.405Z,100.00
2022-10-26T05:27:06.406Z,100.00
2022-10-26T05:32:46.653Z,100.00
2022-10-26T05:38:29.395Z,100.00
2022-10-26T05:44:10.405Z,100.00
2022-10-26T05:49:50.362Z,100.00
2022-10-26T05:55:32.367Z,100.00
2022-10-26T06:01:30.872Z,100.00
2022-10-26T06:07:14.369Z,100.00
2022-10-26T06:12:55.410Z,99.85
2022-10-26T06:18:45.415Z,99.64
2022-10-26T06:24:36.515Z,99.60
2022-10-26T06:30:19.530Z,98.97
2022-10-26T06:36:08.468Z,98.06
2022-10-26T06:41:50.434Z,97.24
2022-10-26T06:47:37.396Z,97.05
2022-10-26T06:53:29.466Z,96.61
2022-10-26T06:59:18.403Z,96.76
2022-10-26T07:04:58.491Z,96.72
2022-10-26T07:10:38.416Z,96.20
2022-10-26T07:16:18.409Z,95.34
2022-10-26T07:22:00.832Z,94.34
2022-10-26T07:27:47.682Z,93.82
2022-10-26T07:33:28.582Z,93.82
2022-10-26T07:39:08.481Z,93.73
2022-10-26T07:44:48.493Z,92.96
2022-10-26T07:50:28.496Z,92.30
2022-10-26T07:56:11.448Z,92.28
2022-10-26T08:01:51.548Z,92.04
2022-10-26T08:07:32.446Z,91.53
2022-10-26T08:13:10.542Z,91.45
2022-10-26T08:18:50.471Z,91.04
2022-10-26T08:24:30.614Z,90.45
2022-10-26T08:30:10.523Z,89.81
2022-10-26T08:35:50.465Z,89.40
2022-10-26T08:41:31.468Z,88.11
2022-10-26T08:53:08.606Z,87.71
2022-10-26T08:58:56.473Z,87.99
2022-10-26T09:04:42.556Z,88.30
2022-10-26T09:10:34.625Z,88.43
2022-10-26T09:16:20.559Z,88.55
2022-10-26T09:22:07.561Z,88.62
2022-10-26T09:27:54.547Z,88.75
2022-10-26T09:33:38.513Z,89.33
2022-10-26T09:39:30.476Z,89.97
2022-10-26T09:45:14.510Z,90.24
2022-10-26T09:51:02.061Z,90.50
2022-10-26T09:56:46.543Z,91.12
2022-10-26T10:02:53.047Z,91.12
2022-10-26T10:08:35.553Z,91.19
2022-10-26T10:14:22.575Z,91.78
2022-10-26T10:20:02.538Z,92.02
2022-10-26T10:25:52.634Z,91.85
2022-10-26T10:31:43.692Z,90.95
2022-10-26T10:37:39.556Z,91.26
2022-10-26T10:43:25.565Z,91.18
2022-10-26T10:49:16.556Z,90.86
2022-10-26T10:54:56.581Z,90.68
2022-10-26T11:00:40.607Z,89.69
2022-10-26T11:06:28.596Z,88.61
2022-10-26T11:12:12.569Z,87.93
2022-10-26T11:18:04.577Z,86.87
2022-10-26T11:23:51.627Z,86.57
2022-10-26T11:31:49.426Z,85.93
2022-10-26T11:37:36.420Z,85.36
2022-10-26T11:43:27.345Z,84.98
2022-10-26T11:49:12.404Z,85.06
2022-10-26T11:54:58.428Z,85.64
2022-10-26T12:00:39.395Z,85.53
2022-10-26T12:06:19.360Z,85.52
2022-10-26T12:12:05.428Z,86.16
2022-10-26T12:17:52.515Z,86.56
2022-10-26T12:23:40.817Z,86.30
2022-10-26T12:29:54.398Z,85.27
2022-10-26T12:35:55.455Z,84.42
2022-10-26T12:41:39.445Z,84.16
2022-10-26T12:47:19.389Z,84.65
2022-10-26T12:53:03.387Z,84.68
2022-10-26T12:59:19.410Z,84.89
2022-10-26T13:05:35.531Z,85.10
2022-10-26T13:11:20.546Z,85.93
2022-10-26T13:17:01.428Z,86.60
2022-10-26T13:22:42.420Z,86.38
2022-10-26T13:28:22.420Z,86.32
2022-10-26T13:34:05.586Z,86.20
2022-10-26T13:39:49.475Z,86.84
2022-10-26T13:45:34.462Z,86.29
2022-10-26T13:51:18.522Z,86.05
2022-10-26T13:57:08.524Z,85.82
2022-10-26T14:02:48.705Z,85.91
2022-10-26T14:08:34.979Z,85.64
2022-10-26T14:14:15.439Z,85.83
2022-10-26T14:19:58.453Z,86.04
2022-10-26T14:25:42.257Z,85.78
2022-10-26T14:31:34.626Z,85.96
2022-10-26T14:37:23.459Z,86.13
2022-10-26T14:43:06.474Z,86.28
2022-10-26T14:48:48.516Z,86.29
2022-10-26T14:54:37.521Z,86.52
2022-10-26T15:00:26.507Z,86.69
2022-10-26T15:06:06.552Z,86.69
2022-10-26T15:11:48.524Z,87.26
2022-10-26T15:17:38.529Z,87.67
2022-10-26T15:23:18.516Z,88.05
2022-10-26T15:28:59.555Z,88.67
2022-10-26T15:34:39.585Z,89.51
2022-10-26T15:40:20.627Z,90.39
2022-10-26T15:46:03.959Z,90.99
2022-10-26T15:51:43.549Z,91.42
2022-10-26T15:57:31.508Z,91.76
2022-10-26T16:03:11.546Z,91.58
2022-10-26T16:08:52.518Z,91.32
2022-10-26T16:14:33.557Z,91.30
2022-10-26T16:20:17.575Z,91.18
2022-10-26T16:25:59.561Z,91.59
2022-10-26T16:31:39.583Z,92.18
2022-10-26T16:37:19.527Z,92.98
2022-10-26T16:42:59.549Z,93.52
2022-10-26T16:48:39.558Z,93.63
2022-10-26T16:54:20.609Z,94.19
2022-10-26T17:00:11.713Z,94.36
2022-10-26T17:05:58.008Z,94.28
2022-10-26T17:36:08.733Z,92.13
2022-10-26T17:41:48.874Z,91.79
2022-10-26T17:47:28.728Z,92.50
2022-10-26T17:53:10.125Z,92.72
2022-10-26T17:58:52.039Z,92.84
2022-10-26T18:04:37.035Z,93.52
2022-10-26T18:10:36.920Z,94.09
2022-10-26T18:16:22.778Z,94.67
2022-10-26T18:22:02.735Z,95.29
2022-10-26T18:27:43.833Z,96.16
2022-10-26T18:33:23.832Z,96.17
2022-10-26T18:39:03.794Z,96.65
2022-10-26T18:44:43.777Z,96.44
2022-10-26T18:50:23.731Z,95.72
2022-10-26T18:56:03.944Z,96.16
2022-10-26T19:01:48.880Z,96.50
2022-10-26T19:07:28.820Z,95.76
2022-10-26T19:13:12.799Z,96.05
2022-10-26T19:24:36.925Z,96.76
2022-10-26T19:30:17.923Z,97.36
2022-10-26T19:35:58.813Z,97.01
2022-10-26T19:41:39.791Z,97.28
2022-10-26T19:47:19.776Z,97.59
2022-10-26T19:52:59.774Z,98.53
2022-10-26T19:58:40.786Z,99.54
2022-10-26T20:04:20.790Z,100.00
2022-10-26T20:10:00.839Z,100.00
2022-10-26T20:15:40.814Z,100.00
2022-10-26T20:21:23.958Z,100.00
2022-10-26T20:27:03.790Z,100.00
2022-10-26T20:32:43.859Z,100.00
2022-10-26T20:38:33.827Z,99.90
2022-10-26T20:44:14.858Z,99.86
2022-10-26T20:49:55.834Z,99.23
2022-10-26T20:55:44.837Z,98.81
2022-10-26T21:01:45.074Z,98.13
2022-10-26T21:07:24.854Z,98.32
2022-10-26T21:13:04.840Z,98.95
2022-10-26T21:18:44.843Z,98.51
2022-10-26T21:24:24.959Z,98.45
2022-10-26T21:30:04.930Z,98.93
2022-10-26T21:35:44.885Z,97.94
2022-10-26T21:41:26.024Z,98.96
2022-10-26T21:47:05.871Z,99.08
2022-10-26T21:52:46.048Z,98.73
2022-10-26T21:58:25.880Z,98.24
2022-10-26T22:04:05.861Z,98.39
2022-10-26T22:10:00.287Z,98.71
2022-10-26T22:15:45.935Z,98.38
2022-10-26T22:21:26.891Z,98.43
2022-10-26T22:27:06.872Z,98.81
2022-10-26T22:32:46.884Z,99.02
2022-10-26T22:38:26.856Z,99.35
2022-10-26T22:44:06.955Z,99.25
2022-10-26T22:49:46.908Z,98.88
2022-10-26T22:55:26.922Z,99.13
2022-10-26T23:01:07.034Z,99.89
2022-10-26T23:06:46.929Z,99.75
2022-10-26T23:12:26.926Z,99.98
2022-10-26T23:18:08.057Z,100.00
2022-10-26T23:23:47.971Z,100.00
2022-10-26T23:29:27.929Z,100.00
2022-10-26T23:35:08.042Z,100.00
2022-10-26T23:40:54.898Z,100.00
2022-10-26T23:46:34.964Z,100.00
2022-10-26T23:52:14.941Z,100.00
2022-10-26T23:57:55.960Z,100.00
